Terminal Aerodrome Forecast
Issued by NWS Brownsville, TX

Home | Current Version | Previous Version | Text Only | Print | Product List | Glossary On
Versions: 1 2 3 4 5 6 7 8 9 10 11 12 13 14 15 16 17 18 19 20 21 22
000
FTUS44 KBRO 201100
TAFMFE
TAF
KMFE 201130Z 2012/2112 08003KT P6SM VCSH BKN250
     FM201800 11008KT P6SM VCSH SCT030 BKN250
      TEMPO 2018/2022 3SM -TSRA BKN020CB
     FM210000 10005KT P6SM VCSH SCT030 OVC250 PROB30 2100/2106 P6SM
      -SHRA BKN025
     FM210600 30003KT P6SM BKN250=

USA.gov is the U.S. government's official web portal to all federal, state and local government web resources and services.